Time;durP1;ratioP1;P1;durP2;ratioP2;P2;SDS_P1;SDS_P2;PMS_P1;PMS_P2;Temp;Humidity;BMP_temperature;BMP_pressure;BME280_temperature;BME280_humidity;BME280_pressure;Samples;Min_cycle;Max_cycle;Signal;HPM_P1;HPM_P2
2023/09/23 00:01:10;;;;;;;0.70;0.70;;;15.90;46.40;;;;;;10263983;28;20227;-77
2023/09/23 00:06:14;;;;;;;1.10;0.70;;;16.00;46.80;;;;;;10262268;28;20227;-77
2023/09/23 00:11:17;;;;;;;0.80;0.80;;;16.00;46.50;;;;;;10261658;28;20223;-77
2023/09/23 00:16:22;;;;;;;1.07;0.70;;;16.00;46.50;;;;;;10263499;28;20424;-77
2023/09/23 00:21:26;;;;;;;1.43;0.77;;;16.00;46.70;;;;;;10263754;28;20825;-77
2023/09/23 00:26:29;;;;;;;0.97;0.77;;;16.00;46.60;;;;;;10258545;28;20245;-77
2023/09/23 00:31:34;;;;;;;0.90;0.90;;;16.00;46.60;;;;;;10261292;28;20781;-77
2023/09/23 00:36:37;;;;;;;1.47;0.80;;;16.00;46.70;;;;;;10260194;28;20315;-77
2023/09/23 00:41:42;;;;;;;1.87;0.80;;;16.00;46.60;;;;;;10257688;28;20227;-74
2023/09/23 00:46:46;;;;;;;1.73;1.00;;;16.10;46.50;;;;;;10262914;28;20234;-74
2023/09/23 00:51:49;;;;;;;1.00;0.90;;;16.10;46.30;;;;;;10260279;28;20235;-72
2023/09/23 00:56:53;;;;;;;0.97;0.90;;;16.20;46.00;;;;;;10256208;28;20234;-72
2023/09/23 01:01:58;;;;;;;1.57;0.90;;;16.20;45.60;;;;;;10260022;28;20757;-74
2023/09/23 01:07:02;;;;;;;1.10;1.10;;;16.10;45.30;;;;;;10260991;28;20251;-76
2023/09/23 01:12:07;;;;;;;0.90;0.90;;;16.10;45.30;;;;;;10254158;28;23625;-77
2023/09/23 01:17:14;;;;;;;1.00;0.90;;;16.00;45.70;;;;;;10259721;28;20235;-77
2023/09/23 01:22:24;;;;;;;1.97;1.10;;;15.90;46.00;;;;;;10259028;28;20231;-77
2023/09/23 01:27:27;;;;;;;2.23;1.00;;;15.80;46.40;;;;;;10220101;28;1159572;-78
2023/09/23 01:32:37;;;;;;;1.10;1.10;;;15.70;46.30;;;;;;10256181;28;20224;-78
2023/09/23 01:37:42;;;;;;;1.97;0.97;;;15.70;46.90;;;;;;10262441;28;20309;-78
2023/09/23 01:42:46;;;;;;;1.27;0.90;;;15.70;47.10;;;;;;10260267;28;20255;-73
2023/09/23 01:47:49;;;;;;;2.50;1.00;;;15.70;47.00;;;;;;10257012;28;20228;-73
2023/09/23 01:52:55;;;;;;;1.17;0.90;;;15.70;47.00;;;;;;10253826;28;20721;-72
2023/09/23 01:57:59;;;;;;;1.80;1.20;;;15.80;47.10;;;;;;10257576;28;20627;-74
2023/09/23 02:03:02;;;;;;;1.63;1.10;;;15.80;46.80;;;;;;10255799;28;20232;-74
2023/09/23 02:08:07;;;;;;;1.10;1.10;;;15.80;46.90;;;;;;10253697;28;20242;-74
2023/09/23 02:13:10;;;;;;;1.37;1.07;;;15.80;47.10;;;;;;10256323;28;20224;-72
2023/09/23 02:18:15;;;;;;;2.27;1.27;;;15.80;46.90;;;;;;10262858;28;20224;-77
2023/09/23 02:23:21;;;;;;;1.73;1.27;;;15.80;47.10;;;;;;10259836;28;20228;-72
2023/09/23 02:28:25;;;;;;;0.83;0.83;;;15.90;47.50;;;;;;10255724;28;20235;-71
2023/09/23 02:33:29;;;;;;;1.20;1.10;;;15.90;47.20;;;;;;10256341;28;20817;-72
2023/09/23 02:38:36;;;;;;;0.80;0.80;;;15.90;47.10;;;;;;10254854;28;20713;-72
2023/09/23 02:43:39;;;;;;;0.90;0.90;;;15.90;47.60;;;;;;10258051;28;20224;-72
2023/09/23 02:48:43;;;;;;;1.43;1.13;;;16.00;47.20;;;;;;10264695;28;20746;-72
2023/09/23 02:53:48;;;;;;;1.20;1.10;;;16.00;47.20;;;;;;10264522;28;20722;-72
2023/09/23 02:58:52;;;;;;;1.33;0.90;;;16.00;47.60;;;;;;10263174;28;20242;-72
2023/09/23 03:03:56;;;;;;;0.93;0.93;;;16.00;47.40;;;;;;10264882;28;20220;-74
2023/09/23 03:09:01;;;;;;;1.10;1.00;;;16.00;47.50;;;;;;10263738;28;20234;-74
2023/09/23 03:14:05;;;;;;;1.10;1.00;;;16.00;47.90;;;;;;10265788;28;20298;-74
2023/09/23 03:19:11;;;;;;;1.03;0.87;;;16.00;47.60;;;;;;10263590;28;20234;-74
2023/09/23 03:24:16;;;;;;;1.00;1.00;;;16.10;47.60;;;;;;10262051;28;20239;-74
2023/09/23 03:29:19;;;;;;;1.43;1.10;;;16.10;47.80;;;;;;10262886;28;20242;-74
2023/09/23 03:34:23;;;;;;;2.00;1.00;;;16.10;47.50;;;;;;10261272;28;20239;-74
2023/09/23 03:39:28;;;;;;;1.60;1.10;;;16.10;47.60;;;;;;10263082;28;20231;-74
2023/09/23 03:44:33;;;;;;;1.33;1.20;;;16.20;47.80;;;;;;10262534;28;20600;-77
2023/09/23 03:49:36;;;;;;;1.30;1.20;;;16.20;47.40;;;;;;10264666;28;20231;-77
2023/09/23 03:54:40;;;;;;;1.07;1.07;;;16.20;47.40;;;;;;10263965;28;20232;-77
2023/09/23 03:59:44;;;;;;;3.83;1.07;;;16.20;47.40;;;;;;10261214;28;20308;-77
2023/09/23 04:04:49;;;;;;;2.30;1.23;;;16.30;47.20;;;;;;10259956;28;20227;-77
2023/09/23 04:09:54;;;;;;;4.87;1.30;;;16.30;46.90;;;;;;10262292;28;20234;-74
2023/09/23 04:14:58;;;;;;;1.13;1.03;;;16.30;46.80;;;;;;10266372;28;20793;-78
2023/09/23 04:20:07;;;;;;;2.03;1.10;;;16.30;46.70;;;;;;10260843;28;20729;-77
2023/09/23 04:25:14;;;;;;;1.07;1.03;;;16.30;46.50;;;;;;10259486;28;20231;-74
2023/09/23 04:30:17;;;;;;;2.27;1.10;;;16.30;46.30;;;;;;10261588;28;20234;-72
2023/09/23 04:35:21;;;;;;;1.27;1.00;;;16.30;46.30;;;;;;10258360;28;20230;-72
2023/09/23 04:40:25;;;;;;;1.37;1.27;;;16.30;46.00;;;;;;10260368;28;20239;-73
2023/09/23 04:45:29;;;;;;;1.27;1.17;;;16.30;45.70;;;;;;10261629;28;20326;-74
2023/09/23 04:50:32;;;;;;;1.20;1.10;;;16.30;45.70;;;;;;10259697;28;20236;-74
2023/09/23 04:55:37;;;;;;;1.67;1.33;;;16.30;45.60;;;;;;10261302;28;20236;-73
2023/09/23 05:00:40;;;;;;;1.00;1.00;;;16.30;45.50;;;;;;10258677;28;20219;-74
2023/09/23 05:05:44;;;;;;;1.07;1.00;;;16.20;45.40;;;;;;10260593;28;20263;-74
2023/09/23 05:10:49;;;;;;;1.60;1.50;;;16.20;45.40;;;;;;10261447;28;20235;-77
2023/09/23 05:15:53;;;;;;;1.20;1.20;;;16.10;45.30;;;;;;10258458;28;20334;-77
2023/09/23 05:20:56;;;;;;;1.50;1.03;;;16.10;45.30;;;;;;10261364;28;20306;-77
2023/09/23 05:26:00;;;;;;;1.10;1.10;;;16.10;46.00;;;;;;10259446;28;20272;-77
2023/09/23 05:31:04;;;;;;;1.40;1.30;;;16.00;45.20;;;;;;10259363;28;21725;-77
2023/09/23 05:36:08;;;;;;;1.83;1.30;;;16.00;45.20;;;;;;10264833;28;20227;-77
2023/09/23 05:41:13;;;;;;;2.77;1.23;;;16.00;45.20;;;;;;10259948;28;20228;-75
2023/09/23 05:46:16;;;;;;;1.20;1.10;;;15.90;45.10;;;;;;10252712;28;20601;-75
2023/09/23 05:51:20;;;;;;;1.00;1.00;;;15.90;45.10;;;;;;10260869;28;20270;-74
2023/09/23 05:56:24;;;;;;;1.47;1.00;;;15.90;45.10;;;;;;10262512;28;20326;-77
2023/09/23 06:01:27;;;;;;;1.37;1.10;;;15.80;45.00;;;;;;10260444;28;20351;-77
2023/09/23 06:06:31;;;;;;;1.97;1.10;;;15.80;45.00;;;;;;10260597;28;20258;-77
2023/09/23 06:11:37;;;;;;;1.00;1.00;;;15.70;45.00;;;;;;10257210;28;20223;-75
2023/09/23 06:16:40;;;;;;;0.80;0.80;;;15.70;45.00;;;;;;10258179;28;20232;-75
2023/09/23 06:21:43;;;;;;;1.00;0.90;;;15.70;45.00;;;;;;10265490;28;20773;-75
2023/09/23 06:26:48;;;;;;;1.67;1.10;;;15.70;45.00;;;;;;10263698;28;20319;-75
2023/09/23 06:31:51;;;;;;;1.40;1.30;;;15.70;45.10;;;;;;10265760;28;20227;-77
2023/09/23 06:36:55;;;;;;;1.70;1.40;;;15.70;45.40;;;;;;10265629;28;20655;-78
2023/09/23 06:41:59;;;;;;;2.87;1.60;;;15.70;45.40;;;;;;10267025;28;20310;-78
2023/09/23 06:47:03;;;;;;;1.43;1.33;;;15.70;45.60;;;;;;10261058;28;20243;-74
2023/09/23 06:52:07;;;;;;;3.27;1.40;;;15.70;45.80;;;;;;10257905;28;21034;-75
2023/09/23 06:57:11;;;;;;;1.20;1.10;;;15.80;45.90;;;;;;10264414;28;20231;-74
2023/09/23 07:02:15;;;;;;;2.77;1.23;;;15.80;46.10;;;;;;10259510;28;20235;-74
2023/09/23 07:07:18;;;;;;;1.17;1.10;;;15.90;46.10;;;;;;10267041;28;20286;-75
2023/09/23 07:12:23;;;;;;;2.00;1.10;;;15.90;45.80;;;;;;10261375;28;20239;-74
2023/09/23 07:17:27;;;;;;;1.10;1.00;;;16.00;45.70;;;;;;10261588;28;20317;-74
2023/09/23 07:22:31;;;;;;;1.10;1.00;;;16.10;46.00;;;;;;10260375;28;20294;-78
2023/09/23 07:27:35;;;;;;;1.27;0.90;;;16.20;46.00;;;;;;10260225;28;20254;-72
2023/09/23 07:32:38;;;;;;;0.97;0.90;;;16.20;45.40;;;;;;10262545;28;20978;-74
2023/09/23 07:37:42;;;;;;;2.13;1.00;;;16.20;45.40;;;;;;10257964;28;20635;-74
2023/09/23 07:42:46;;;;;;;2.40;1.17;;;16.30;45.50;;;;;;10260787;28;20592;-73
2023/09/23 07:47:50;;;;;;;1.60;1.17;;;16.30;45.50;;;;;;10257138;28;20220;-76
2023/09/23 07:52:53;;;;;;;1.17;1.00;;;16.50;45.70;;;;;;10264507;28;20227;-74
2023/09/23 07:57:58;;;;;;;2.87;1.20;;;16.60;45.70;;;;;;10263948;28;20672;-74
2023/09/23 08:03:01;;;;;;;0.93;0.90;;;16.70;45.00;;;;;;10258379;28;20236;-74
2023/09/23 08:08:06;;;;;;;1.07;0.93;;;16.80;45.40;;;;;;10258256;28;20220;-73
2023/09/23 08:13:10;;;;;;;0.90;0.90;;;16.90;45.30;;;;;;10258895;28;20238;-73
2023/09/23 08:18:14;;;;;;;1.63;0.97;;;17.00;43.80;;;;;;10258764;28;20223;-73
2023/09/23 08:23:17;;;;;;;2.10;1.10;;;17.10;44.60;;;;;;10258804;28;20231;-73
2023/09/23 08:28:22;;;;;;;1.40;0.87;;;17.10;44.00;;;;;;10256032;28;20239;-72
2023/09/23 08:33:27;;;;;;;0.90;0.90;;;17.20;43.50;;;;;;10256228;28;20331;-71
2023/09/23 08:38:31;;;;;;;0.80;0.80;;;17.20;43.80;;;;;;10259548;28;20320;-71
2023/09/23 08:43:37;;;;;;;1.97;0.80;;;17.20;43.40;;;;;;10259210;28;20898;-71
2023/09/23 08:48:41;;;;;;;3.00;1.10;;;17.30;43.70;;;;;;10262690;28;20286;-73
2023/09/23 08:53:46;;;;;;;1.00;0.90;;;17.40;45.00;;;;;;10257429;28;20232;-71
2023/09/23 08:58:51;;;;;;;3.03;1.40;;;17.50;44.60;;;;;;10254703;28;20223;-71
2023/09/23 09:03:55;;;;;;;4.40;1.00;;;17.70;42.90;;;;;;10253305;28;20231;-71
2023/09/23 09:08:58;;;;;;;2.57;0.90;;;17.90;43.60;;;;;;10254442;28;20370;-71
2023/09/23 09:14:02;;;;;;;2.50;1.10;;;18.10;43.70;;;;;;10253696;28;20294;-71
2023/09/23 09:19:06;;;;;;;1.20;1.10;;;18.20;41.90;;;;;;10255583;28;20227;-71
2023/09/23 09:24:10;;;;;;;1.00;0.90;;;18.30;42.50;;;;;;10252682;28;20691;-71
2023/09/23 09:29:16;;;;;;;1.00;0.90;;;18.40;42.30;;;;;;10244140;28;20233;-71
2023/09/23 09:34:25;;;;;;;1.47;0.70;;;18.40;41.60;;;;;;10245465;28;20224;-70
2023/09/23 09:39:32;;;;;;;1.83;0.70;;;18.50;39.90;;;;;;10245319;28;20301;-71
2023/09/23 09:44:38;;;;;;;1.60;0.60;;;18.50;40.70;;;;;;10247384;28;20227;-71
2023/09/23 09:49:42;;;;;;;2.10;0.80;;;18.50;41.30;;;;;;10241794;28;20240;-71
2023/09/23 09:54:45;;;;;;;1.13;1.00;;;18.70;41.30;;;;;;10248203;28;20228;-71
2023/09/23 09:59:51;;;;;;;0.97;0.83;;;18.70;41.40;;;;;;10256078;28;21091;-70
2023/09/23 10:05:02;;;;;;;8.80;1.30;;;18.80;40.80;;;;;;10253550;28;20612;-71
2023/09/23 10:10:13;;;;;;;1.90;1.00;;;18.70;41.10;;;;;;10252461;28;20874;-71
2023/09/23 10:15:27;;;;;;;1.23;1.10;;;18.70;40.10;;;;;;10255029;28;20227;-71
2023/09/23 10:20:34;;;;;;;1.80;1.07;;;18.80;40.20;;;;;;10255570;28;20656;-73
2023/09/23 10:25:39;;;;;;;1.43;1.30;;;18.70;39.90;;;;;;10257161;28;20704;-73
2023/09/23 10:30:44;;;;;;;1.43;1.30;;;18.80;40.40;;;;;;10252969;28;20879;-73
2023/09/23 10:35:48;;;;;;;1.53;1.17;;;18.80;40.60;;;;;;10251432;28;20246;-73
2023/09/23 10:40:52;;;;;;;0.90;0.90;;;18.80;40.60;;;;;;10251742;28;20234;-72
2023/09/23 10:45:58;;;;;;;1.20;1.00;;;18.70;41.00;;;;;;10250579;28;20248;-71
2023/09/23 10:51:03;;;;;;;1.00;1.00;;;18.70;40.30;;;;;;10247003;28;20228;-71
2023/09/23 10:56:10;;;;;;;1.73;1.17;;;18.80;41.20;;;;;;10250223;28;20311;-72
2023/09/23 11:01:16;;;;;;;1.00;0.97;;;18.80;40.40;;;;;;10250563;28;20220;-72
2023/09/23 11:06:20;;;;;;;2.63;1.10;;;18.90;40.40;;;;;;10247902;28;20334;-72
2023/09/23 11:11:23;;;;;;;1.17;0.90;;;18.90;40.20;;;;;;10254197;28;20234;-75
2023/09/23 11:16:27;;;;;;;1.23;1.00;;;18.80;40.40;;;;;;10251904;28;20227;-75
2023/09/23 11:21:31;;;;;;;0.90;0.80;;;18.80;40.50;;;;;;10254375;28;20238;-75
2023/09/23 11:26:38;;;;;;;1.23;0.90;;;18.90;40.80;;;;;;10249471;28;20239;-72
2023/09/23 11:31:43;;;;;;;2.93;1.30;;;19.00;40.00;;;;;;10253425;28;20410;-71
2023/09/23 11:36:46;;;;;;;1.20;1.00;;;19.20;40.10;;;;;;10246964;28;21619;-75
2023/09/23 11:41:57;;;;;;;0.93;0.80;;;19.30;40.20;;;;;;10261384;28;20717;-74
2023/09/23 11:47:01;;;;;;;1.13;0.90;;;19.50;39.00;;;;;;10256897;28;20247;-71
2023/09/23 11:52:12;;;;;;;1.10;0.80;;;19.70;38.30;;;;;;10259794;28;20219;-71
2023/09/23 11:57:15;;;;;;;1.17;0.83;;;19.80;38.80;;;;;;10260648;28;20236;-71
2023/09/23 12:02:21;;;;;;;3.30;0.90;;;19.90;38.70;;;;;;10263231;28;20378;-71
2023/09/23 12:07:24;;;;;;;2.30;1.00;;;20.00;36.90;;;;;;10261091;28;20625;-71
2023/09/23 12:12:28;;;;;;;2.47;0.90;;;20.10;37.80;;;;;;10259953;28;21316;-71
2023/09/23 12:17:32;;;;;;;1.37;0.80;;;20.20;37.50;;;;;;10262712;28;20227;-71
2023/09/23 12:22:35;;;;;;;1.27;0.90;;;20.20;36.80;;;;;;10260345;28;20366;-71
2023/09/23 12:27:39;;;;;;;0.70;0.70;;;20.20;37.30;;;;;;10251041;28;20232;-71
2023/09/23 12:32:43;;;;;;;1.57;0.90;;;20.20;37.00;;;;;;10258553;28;20236;-71
2023/09/23 12:37:47;;;;;;;1.00;0.70;;;20.20;36.70;;;;;;10258807;28;20231;-71
2023/09/23 12:42:51;;;;;;;1.30;0.83;;;20.20;37.70;;;;;;10257903;28;20314;-71
2023/09/23 12:47:55;;;;;;;1.20;1.00;;;20.20;37.50;;;;;;10257845;28;20235;-71
2023/09/23 12:53:00;;;;;;;2.40;0.87;;;20.20;36.70;;;;;;10258008;28;20239;-72
2023/09/23 12:58:05;;;;;;;1.30;0.90;;;20.30;36.80;;;;;;10257289;28;21056;-74
2023/09/23 13:03:10;;;;;;;2.00;1.10;;;20.20;36.70;;;;;;10260316;28;20230;-75
2023/09/23 13:08:14;;;;;;;1.10;1.00;;;20.20;36.70;;;;;;10267066;28;20238;-71
2023/09/23 13:13:18;;;;;;;1.60;1.00;;;20.20;36.70;;;;;;10266562;28;20232;-71
2023/09/23 13:18:22;;;;;;;2.40;1.00;;;20.10;36.60;;;;;;10274884;28;20233;-71
2023/09/23 13:23:25;;;;;;;2.07;0.90;;;20.10;36.40;;;;;;10266904;28;20355;-70
2023/09/23 13:28:29;;;;;;;1.63;0.90;;;20.10;37.30;;;;;;10263729;28;20266;-71
2023/09/23 13:33:35;;;;;;;1.47;1.20;;;20.10;36.60;;;;;;10266289;28;20231;-75
2023/09/23 13:38:38;;;;;;;2.60;0.80;;;20.10;36.20;;;;;;10259620;28;20625;-70
2023/09/23 13:43:42;;;;;;;1.00;0.90;;;20.10;36.60;;;;;;10253736;28;20228;-74
2023/09/23 13:48:46;;;;;;;0.93;0.90;;;20.10;36.60;;;;;;10256297;28;20228;-75
2023/09/23 13:53:50;;;;;;;1.53;1.10;;;20.00;36.50;;;;;;10256029;28;20231;-75
2023/09/23 13:58:53;;;;;;;0.97;0.80;;;20.00;36.60;;;;;;10254539;28;20599;-75
2023/09/23 14:03:58;;;;;;;1.77;0.87;;;20.10;36.60;;;;;;10255511;28;20231;-75
2023/09/23 14:09:03;;;;;;;1.67;1.10;;;20.00;36.50;;;;;;10257465;28;20227;-75
2023/09/23 14:14:06;;;;;;;1.03;0.93;;;20.00;36.60;;;;;;10258972;28;20232;-74
2023/09/23 14:19:10;;;;;;;1.73;0.90;;;20.00;36.50;;;;;;10253118;28;20298;-74
2023/09/23 14:24:14;;;;;;;1.73;0.90;;;19.90;36.40;;;;;;10255877;28;20322;-71
2023/09/23 14:29:17;;;;;;;1.83;1.00;;;19.90;36.40;;;;;;10253441;28;20242;-71
2023/09/23 14:34:22;;;;;;;2.40;1.13;;;19.80;36.30;;;;;;10258881;28;20231;-71
2023/09/23 14:39:25;;;;;;;1.50;1.13;;;19.90;36.40;;;;;;10256365;28;20224;-71
2023/09/23 14:44:28;;;;;;;1.30;1.10;;;19.90;36.40;;;;;;10263102;28;20236;-75
2023/09/23 14:49:33;;;;;;;1.90;1.03;;;19.90;36.40;;;;;;10266529;28;20235;-70
2023/09/23 14:54:36;;;;;;;1.77;1.20;;;20.00;36.50;;;;;;10272239;28;20318;-70
2023/09/23 14:59:40;;;;;;;1.43;1.30;;;20.00;36.50;;;;;;10262209;28;20341;-72
2023/09/23 15:04:45;;;;;;;2.60;1.10;;;20.00;36.40;;;;;;10266069;28;20277;-71
2023/09/23 15:09:48;;;;;;;1.00;1.00;;;20.00;36.40;;;;;;10270623;28;20247;-72
2023/09/23 15:14:51;;;;;;;1.23;1.00;;;20.00;36.50;;;;;;10266408;28;20242;-72
2023/09/23 15:19:56;;;;;;;1.43;1.23;;;20.00;36.20;;;;;;10264678;28;20282;-71
2023/09/23 15:24:59;;;;;;;3.17;1.20;;;20.00;35.90;;;;;;10271650;28;20231;-71
2023/09/23 15:30:02;;;;;;;0.90;0.90;;;20.00;36.40;;;;;;10264232;28;20231;-74
2023/09/23 15:35:08;;;;;;;1.50;1.10;;;20.00;36.40;;;;;;10255130;28;20231;-75
2023/09/23 15:40:13;;;;;;;1.63;1.20;;;20.00;35.60;;;;;;10260607;28;20234;-75
2023/09/23 15:45:17;;;;;;;1.10;1.00;;;20.00;36.50;;;;;;10257491;28;20345;-75
2023/09/23 15:50:21;;;;;;;2.07;1.00;;;20.10;36.40;;;;;;10262394;28;20242;-72
2023/09/23 15:55:25;;;;;;;2.27;1.03;;;20.10;36.00;;;;;;10265495;28;20224;-72
2023/09/23 16:00:28;;;;;;;1.47;0.90;;;20.10;36.00;;;;;;10262729;28;21751;-74
2023/09/23 16:05:32;;;;;;;2.87;1.00;;;20.20;36.10;;;;;;10263863;28;20714;-74
2023/09/23 16:10:36;;;;;;;3.17;1.00;;;20.20;35.70;;;;;;10260695;28;20729;-73
2023/09/23 16:15:39;;;;;;;1.23;0.87;;;20.20;36.10;;;;;;10266533;28;20316;-73
2023/09/23 16:20:44;;;;;;;1.40;0.93;;;20.30;36.00;;;;;;10264066;28;20248;-73
2023/09/23 16:25:47;;;;;;;1.37;0.80;;;20.30;35.40;;;;;;10267441;28;20442;-73
2023/09/23 16:30:50;;;;;;;1.33;1.10;;;20.30;35.80;;;;;;10255987;28;20247;-77
2023/09/23 16:35:55;;;;;;;1.00;0.77;;;20.30;36.00;;;;;;10259749;28;20247;-76
2023/09/23 16:40:58;;;;;;;1.27;1.13;;;20.30;35.80;;;;;;10255015;28;20230;-75
2023/09/23 16:46:01;;;;;;;1.20;1.10;;;20.40;36.90;;;;;;10254582;28;20231;-75
2023/09/23 16:51:06;;;;;;;2.07;1.20;;;20.40;36.80;;;;;;10259087;28;20307;-75
2023/09/23 16:56:10;;;;;;;2.07;0.87;;;20.40;36.60;;;;;;10266521;28;20231;-72
2023/09/23 17:01:14;;;;;;;1.90;1.30;;;20.40;36.50;;;;;;10270990;28;20246;-71
2023/09/23 17:06:19;;;;;;;1.10;1.00;;;20.30;36.20;;;;;;10270292;28;20244;-71
2023/09/23 17:11:24;;;;;;;1.40;1.30;;;20.20;35.90;;;;;;10260790;28;20698;-72
2023/09/23 17:16:27;;;;;;;3.63;1.60;;;20.10;36.50;;;;;;10259215;28;20240;-72
2023/09/23 17:21:32;;;;;;;1.40;1.30;;;20.00;36.50;;;;;;10254620;28;20239;-75
2023/09/23 17:26:35;;;;;;;2.13;1.30;;;19.90;36.40;;;;;;10263847;28;20318;-72
2023/09/23 17:31:38;;;;;;;1.90;1.30;;;19.80;36.30;;;;;;10257992;28;20231;-72
2023/09/23 17:36:43;;;;;;;2.57;1.90;;;19.70;36.20;;;;;;10266546;28;20220;-72
2023/09/23 17:41:47;;;;;;;5.30;4.80;;;19.50;36.10;;;;;;10261904;28;20239;-72
2023/09/23 17:46:50;;;;;;;4.07;3.60;;;19.30;36.60;;;;;;10259013;28;20526;-72
2023/09/23 17:51:54;;;;;;;2.77;2.57;;;19.10;36.70;;;;;;10254791;28;20228;-72
2023/09/23 17:56:58;;;;;;;2.00;1.80;;;19.00;37.20;;;;;;10259533;28;20302;-73
2023/09/23 18:02:01;;;;;;;1.60;1.50;;;18.90;37.40;;;;;;10260090;28;20234;-72
2023/09/23 18:07:06;;;;;;;2.83;1.63;;;18.80;37.30;;;;;;10253508;28;20238;-72
2023/09/23 18:12:10;;;;;;;2.00;1.80;;;18.80;37.60;;;;;;10251198;28;20250;-72
2023/09/23 18:17:14;;;;;;;2.03;1.83;;;18.80;37.70;;;;;;10258738;28;20235;-72
2023/09/23 18:22:19;;;;;;;1.97;1.87;;;18.80;37.40;;;;;;10256903;28;20228;-72
2023/09/23 18:27:22;;;;;;;6.47;4.60;;;18.70;37.30;;;;;;10251477;28;20235;-72
2023/09/23 18:32:25;;;;;;;5.07;3.30;;;18.50;37.50;;;;;;10262253;28;20223;-72
2023/09/23 18:37:30;;;;;;;2.63;2.43;;;18.40;37.80;;;;;;10260649;28;20734;-72
2023/09/23 18:42:33;;;;;;;2.80;2.10;;;18.30;38.20;;;;;;10256114;28;20290;-75
2023/09/23 18:47:37;;;;;;;2.70;2.10;;;18.20;38.20;;;;;;10261067;28;20310;-75
2023/09/23 18:52:42;;;;;;;2.37;1.90;;;18.10;38.40;;;;;;10263773;28;20232;-72
2023/09/23 18:57:45;;;;;;;2.30;1.90;;;18.00;38.50;;;;;;10260178;28;20239;-72
2023/09/23 19:02:48;;;;;;;3.13;1.90;;;18.00;38.70;;;;;;10255245;28;20306;-71
2023/09/23 19:07:53;;;;;;;1.80;1.70;;;18.00;38.90;;;;;;10243920;28;20233;-72
2023/09/23 19:12:56;;;;;;;1.67;1.57;;;18.00;39.10;;;;;;10235587;28;20231;-73
2023/09/23 19:18:00;;;;;;;2.90;2.00;;;18.10;39.00;;;;;;10236375;28;20266;-73
2023/09/23 19:23:05;;;;;;;1.70;1.60;;;18.20;38.90;;;;;;10236697;28;20220;-72
2023/09/23 19:28:08;;;;;;;2.80;1.97;;;18.20;39.00;;;;;;10236477;28;20243;-72
2023/09/23 19:33:12;;;;;;;2.07;1.90;;;18.30;38.80;;;;;;10240560;28;20233;-71
2023/09/23 19:38:17;;;;;;;2.10;1.90;;;18.30;38.80;;;;;;10241702;28;20789;-72
2023/09/23 19:43:20;;;;;;;2.10;1.90;;;18.40;39.00;;;;;;10239822;28;20318;-72
2023/09/23 19:48:24;;;;;;;2.07;1.87;;;18.30;38.80;;;;;;10241428;28;20232;-72
2023/09/23 19:53:28;;;;;;;2.80;2.00;;;18.40;38.90;;;;;;10241530;28;20235;-71
2023/09/23 19:58:32;;;;;;;2.17;1.97;;;18.40;39.00;;;;;;10240744;28;20652;-72
2023/09/23 20:03:35;;;;;;;2.10;1.90;;;18.40;38.80;;;;;;10241454;28;21509;-72
2023/09/23 20:08:39;;;;;;;3.50;1.90;;;18.40;38.90;;;;;;10249014;28;20242;-72
2023/09/23 20:13:43;;;;;;;2.30;2.10;;;18.40;39.10;;;;;;10255776;28;20231;-72
2023/09/23 20:18:47;;;;;;;2.33;2.13;;;18.40;38.90;;;;;;10247839;28;20641;-72
2023/09/23 20:23:52;;;;;;;2.27;2.07;;;18.40;39.00;;;;;;10245911;28;20338;-72
2023/09/23 20:28:55;;;;;;;2.20;2.00;;;18.30;39.10;;;;;;10248936;28;20231;-72
2023/09/23 20:33:59;;;;;;;2.37;2.00;;;18.30;38.80;;;;;;10250496;28;20315;-72
2023/09/23 20:39:04;;;;;;;2.20;2.00;;;18.30;39.00;;;;;;10248592;28;20702;-72
2023/09/23 20:44:07;;;;;;;2.60;2.40;;;18.20;39.00;;;;;;10253913;28;20232;-72
2023/09/23 20:49:12;;;;;;;2.23;2.03;;;18.20;38.80;;;;;;10250366;28;20232;-72
2023/09/23 20:54:17;;;;;;;2.47;2.27;;;18.20;38.80;;;;;;10251386;28;21049;-70
2023/09/23 20:59:21;;;;;;;2.60;2.27;;;18.10;39.00;;;;;;10249097;28;20230;-70
2023/09/23 21:04:24;;;;;;;2.73;2.10;;;18.00;38.70;;;;;;10248585;28;20307;-70
2023/09/23 21:09:29;;;;;;;3.40;2.03;;;18.00;38.90;;;;;;10255001;28;20232;-70
2023/09/23 21:14:32;;;;;;;2.10;1.90;;;17.90;39.00;;;;;;10249587;28;20258;-70
2023/09/23 21:19:35;;;;;;;2.43;2.20;;;17.80;39.10;;;;;;10250235;28;20220;-71
2023/09/23 21:24:40;;;;;;;2.50;1.70;;;17.80;39.10;;;;;;10248026;28;20232;-71
2023/09/23 21:29:43;;;;;;;2.67;1.83;;;17.80;39.30;;;;;;10249208;28;20231;-71
2023/09/23 21:34:47;;;;;;;2.33;2.00;;;17.80;39.20;;;;;;10249066;28;20778;-71
2023/09/23 21:39:53;;;;;;;2.10;1.90;;;17.70;39.20;;;;;;10250306;28;20243;-71
2023/09/23 21:44:57;;;;;;;2.47;1.90;;;17.60;39.50;;;;;;10254806;28;20240;-72
2023/09/23 21:50:01;;;;;;;2.40;1.80;;;17.50;39.30;;;;;;10255799;28;20235;-71
2023/09/23 21:55:07;;;;;;;1.87;1.70;;;17.50;39.60;;;;;;10259783;28;20231;-71
2023/09/23 22:00:25;;;;;;;1.80;1.70;;;17.50;39.90;;;;;;10263041;28;20820;-72
2023/09/23 22:05:30;;;;;;;2.30;2.10;;;17.40;39.70;;;;;;10259623;28;20805;-72
2023/09/23 22:10:35;;;;;;;2.03;1.83;;;17.40;39.70;;;;;;10256175;28;20228;-72
2023/09/23 22:15:38;;;;;;;2.00;1.80;;;17.30;39.50;;;;;;10260643;28;20223;-72
2023/09/23 22:20:42;;;;;;;1.97;1.80;;;17.20;39.40;;;;;;10259076;28;20277;-72
2023/09/23 22:25:47;;;;;;;2.37;1.60;;;17.10;39.60;;;;;;10258516;28;20321;-71
2023/09/23 22:30:51;;;;;;;1.83;1.47;;;17.00;39.60;;;;;;10268148;28;20710;-72
2023/09/23 22:35:54;;;;;;;1.43;1.33;;;16.90;39.60;;;;;;10263623;28;20231;-72
2023/09/23 22:40:58;;;;;;;1.60;1.50;;;16.80;39.70;;;;;;10264493;28;20699;-72
2023/09/23 22:46:02;;;;;;;2.63;1.40;;;16.80;40.00;;;;;;10261898;28;20261;-73
2023/09/23 22:51:05;;;;;;;2.27;1.70;;;16.70;39.80;;;;;;10267284;28;20311;-72
2023/09/23 22:56:11;;;;;;;1.93;1.70;;;16.70;40.00;;;;;;10267715;28;20232;-72
2023/09/23 23:01:15;;;;;;;1.73;1.63;;;16.70;40.20;;;;;;10266487;28;20238;-72
2023/09/23 23:06:19;;;;;;;2.40;1.80;;;16.70;40.00;;;;;;10266182;28;20223;-72
2023/09/23 23:11:24;;;;;;;2.13;1.90;;;16.70;40.10;;;;;;10268001;28;20298;-72
2023/09/23 23:16:27;;;;;;;1.40;1.30;;;16.60;40.20;;;;;;10267545;28;20235;-72
2023/09/23 23:21:30;;;;;;;2.10;1.50;;;16.50;40.10;;;;;;10266337;28;20236;-72
2023/09/23 23:26:35;;;;;;;1.63;1.40;;;16.50;40.10;;;;;;10264570;28;20607;-72
2023/09/23 23:31:40;;;;;;;2.60;1.60;;;16.40;40.20;;;;;;10264570;28;20282;-71
2023/09/23 23:36:43;;;;;;;2.40;1.50;;;16.40;40.00;;;;;;10267114;28;20314;-72
2023/09/23 23:41:48;;;;;;;2.13;1.40;;;16.30;40.10;;;;;;10267232;28;20650;-72
2023/09/23 23:46:51;;;;;;;1.67;1.50;;;16.20;40.20;;;;;;10263449;28;20231;-72
2023/09/23 23:51:55;;;;;;;1.90;1.80;;;16.30;40.10;;;;;;10265217;28;20223;-72
2023/09/23 23:57:00;;;;;;;2.50;1.80;;;16.20;40.00;;;;;;10267702;28;20236;-71
